• Join FlightAware (Why Join?)
  • Login
  • US Flag 
08:01PM EDT


 

Airport Tracker/Info


-or-


 

Live Flight TrackerFlight Track Log ✈ CCA4122 ✈ 30-Jun-2013 ✈ ZBAA / PEK - ZUJZ / JZH

Flight Track Log - Related Links

Times and Time Zones

All times are in EDT time to prevent confusion due to time zone crossing. See the CCA4122 flight status page for this flight to view local times or setup timezone preferences in your user account.

Time Position Orientation Groundspeed Altitude Reporting Facility
EDT Latitude Longitude Course Direction KTS MPH feet Rate Location/Type
08:07AM 39.9410 116.2817 239° Southwest  Level Estimated
08:08AM 39.8944 116.1811 239° Southwest  Level Estimated
08:09AM 39.8478 116.0806 239° Southwest  Level Estimated
08:10AM 39.8011 115.9802 239° Southwest  Level Estimated
08:11AM 39.7542 115.8799 239° Southwest  Level Estimated
08:12AM 39.7074 115.7798 239° Southwest  Level Estimated
08:12AM 40.1490 116.0680 239° Southwest 293 337 16,900  Level FlightAware
08:13AM 39.6604 115.6798 239° Southwest  Level Estimated
08:13AM 40.1140 115.9870 241° Southwest 305 351 19,300  Level FlightAware
08:15AM 39.9750 115.7530 232° Southwest 329 379 20,700 300 Climbing FlightAware
08:17AM 39.8880 115.6170 230° Southwest 330 380 20,700  Level FlightAware
08:20AM 39.7519 115.3402 237° Southwest  Level Estimated
08:21AM 39.7032 115.2415 237° Southwest  Level Estimated
08:22AM 39.6544 115.1431 237° Southwest  Level Estimated
08:23AM 39.6055 115.0447 237° Southwest  Level Estimated
08:24AM 39.5565 114.9466 237° Southwest  Level Estimated
08:25AM 39.5074 114.8485 237° Southwest  Level Estimated
08:26AM 39.4582 114.7506 237° Southwest  Level Estimated
08:27AM 39.4090 114.6528 237° Southwest  Level Estimated
08:28AM 39.3596 114.5552 237° Southwest  Level Estimated
08:29AM 39.3102 114.4577 237° Southwest  Level Estimated
08:30AM 39.2607 114.3603 237° Southwest  Level Estimated
08:31AM 39.2112 114.2631 237° Southwest  Level Estimated
08:32AM 39.1615 114.1660 237° Southwest  Level Estimated
08:33AM 39.1118 114.0691 237° Southwest  Level Estimated
08:34AM 39.0620 113.9723 236° Southwest  Level Estimated
08:35AM 39.0121 113.8756 236° Southwest  Level Estimated
08:36AM 38.9621 113.7790 236° Southwest  Level Estimated
08:37AM 38.9121 113.6826 236° Southwest  Level Estimated
08:38AM 38.8619 113.5864 236° Southwest  Level Estimated
08:39AM 38.8117 113.4902 236° Southwest  Level Estimated
08:40AM 38.7615 113.3942 236° Southwest  Level Estimated
08:41AM 38.7111 113.2984 236° Southwest  Level Estimated
08:42AM 38.6606 113.2027 236° Southwest  Level Estimated
08:43AM 38.6101 113.1071 236° Southwest  Level Estimated
08:44AM 38.5595 113.0116 236° Southwest  Level Estimated
08:45AM 38.5089 112.9163 236° Southwest  Level Estimated
08:46AM 38.4581 112.8211 236° Southwest  Level Estimated
08:47AM 38.4073 112.7261 236° Southwest  Level Estimated
08:48AM 38.3564 112.6311 236° Southwest  Level Estimated
08:49AM 38.3054 112.5363 236° Southwest  Level Estimated
08:50AM 38.2543 112.4417 236° Southwest  Level Estimated
08:51AM 38.2032 112.3472 235° Southwest  Level Estimated
08:52AM 38.1520 112.2528 235° Southwest  Level Estimated
08:53AM 38.1007 112.1585 235° Southwest  Level Estimated
08:54AM 38.0493 112.0644 235° Southwest  Level Estimated
08:55AM 37.9979 111.9704 235° Southwest  Level Estimated
08:56AM 37.9464 111.8766 235° Southwest  Level Estimated
08:57AM 37.8948 111.7828 235° Southwest  Level Estimated
08:58AM 37.8431 111.6892 235° Southwest  Level Estimated
08:59AM 37.7914 111.5958 235° Southwest  Level Estimated
09:00AM 37.7396 111.5024 235° Southwest  Level Estimated
09:01AM 37.6877 111.4092 235° Southwest  Level Estimated
09:02AM 37.6358 111.3162 235° Southwest  Level Estimated
09:03AM 37.5837 111.2232 235° Southwest  Level Estimated
09:04AM 37.5316 111.1304 235° Southwest  Level Estimated
09:05AM 37.4795 111.0378 235° Southwest  Level Estimated
09:06AM 37.4272 110.9452 235° Southwest  Level Estimated
09:07AM 37.3749 110.8528 235° Southwest  Level Estimated
09:08AM 37.3225 110.7605 235° Southwest  Level Estimated
09:09AM 37.2701 110.6683 234° Southwest  Level Estimated
09:10AM 37.2175 110.5763 234° Southwest  Level Estimated
09:11AM 37.1649 110.4844 234° Southwest  Level Estimated
09:12AM 37.1123 110.3926 234° Southwest  Level Estimated
09:13AM 37.0595 110.3009 234° Southwest  Level Estimated
09:14AM 37.0067 110.2094 234° Southwest  Level Estimated
09:15AM 36.9538 110.1180 234° Southwest  Level Estimated
09:16AM 36.9009 110.0267 234° Southwest  Level Estimated
09:17AM 36.8479 109.9356 234° Southwest  Level Estimated
09:18AM 36.7948 109.8446 234° Southwest  Level Estimated
09:19AM 36.7416 109.7537 234° Southwest  Level Estimated
09:20AM 36.6884 109.6629 234° Southwest  Level Estimated
09:21AM 36.6351 109.5723 234° Southwest  Level Estimated
09:22AM 36.5817 109.4818 234° Southwest  Level Estimated
09:23AM 36.5283 109.3914 234° Southwest  Level Estimated
09:24AM 36.4748 109.3011 234° Southwest  Level Estimated
09:25AM 36.4212 109.2110 234° Southwest  Level Estimated
09:26AM 36.3675 109.1209 234° Southwest  Level Estimated
09:27AM 36.3138 109.0310 233° Southwest  Level Estimated
09:28AM 36.2601 108.9413 233° Southwest  Level Estimated
09:29AM 36.2062 108.8516 233° Southwest  Level Estimated
09:30AM 36.1523 108.7621 233° Southwest  Level Estimated
09:31AM 36.0983 108.6727 233° Southwest  Level Estimated
09:32AM 36.0443 108.5834 233° Southwest  Level Estimated
09:33AM 35.9902 108.4943 233° Southwest  Level Estimated
09:34AM 35.9360 108.4052 233° Southwest  Level Estimated
09:35AM 35.8818 108.3163 233° Southwest  Level Estimated
09:36AM 35.8274 108.2275 233° Southwest  Level Estimated
09:37AM 35.7731 108.1389 233° Southwest  Level Estimated
09:38AM 35.7186 108.0503 233° Southwest  Level Estimated
09:39AM 35.6641 107.9619 233° Southwest  Level Estimated
09:40AM 35.6096 107.8736 233° Southwest  Level Estimated
09:41AM 35.5549 107.7854 233° Southwest  Level Estimated
09:42AM 35.5003 107.6974 233° Southwest  Level Estimated
09:43AM 35.4455 107.6094 233° Southwest  Level Estimated
09:44AM 35.3907 107.5216 233° Southwest  Level Estimated
09:45AM 35.3358 107.4339 233° Southwest  Level Estimated
09:46AM 35.2808 107.3463 232° Southwest  Level Estimated
09:47AM 35.2258 107.2589 232° Southwest  Level Estimated
09:48AM 35.1708 107.1715 232° Southwest  Level Estimated
09:49AM 35.1156 107.0843 232° Southwest  Level Estimated
09:50AM 35.0604 106.9972 232° Southwest  Level Estimated
09:51AM 35.0052 106.9102 232° Southwest  Level Estimated
09:52AM 34.9498 106.8233 232° Southwest  Level Estimated
09:53AM 34.8945 106.7365 232° Southwest  Level Estimated
09:54AM 34.8390 106.6499 232° Southwest  Level Estimated
09:55AM 34.7835 106.5634 232° Southwest  Level Estimated
09:56AM 34.7279 106.4770 232° Southwest  Level Estimated
09:57AM 34.6723 106.3907 232° Southwest  Level Estimated
09:58AM 34.6166 106.3045 232° Southwest  Level Estimated
09:59AM 34.5609 106.2184 232° Southwest  Level Estimated
10:00AM 34.5051 106.1325 232° Southwest  Level Estimated
10:01AM 34.4492 106.0467 232° Southwest  Level Estimated
10:02AM 34.3932 105.9609 232° Southwest  Level Estimated
10:03AM 34.3373 105.8753 232° Southwest  Level Estimated
10:04AM 34.2812 105.7898 232° Southwest  Level Estimated
10:05AM 34.2251 105.7045 232° Southwest  Level Estimated
10:06AM 34.1689 105.6192 231° Southwest  Level Estimated
10:07AM 34.1127 105.5341 231° Southwest  Level Estimated
10:08AM 34.0564 105.4491 231° Southwest  Level Estimated
10:09AM 34.0001 105.3641 231° Southwest  Level Estimated
10:10AM 33.9437 105.2793 231° Southwest  Level Estimated
10:11AM 33.8872 105.1946 231° Southwest  Level Estimated
10:12AM 33.8307 105.1100 231° Southwest  Level Estimated
10:13AM 33.7741 105.0256 231° Southwest  Level Estimated
10:14AM 33.7175 104.9412 231° Southwest  Level Estimated
10:15AM 33.6608 104.8570 231° Southwest  Level Estimated
10:16AM 33.6040 104.7728 231° Southwest  Level Estimated
10:17AM 33.5472 104.6888 231° Southwest  Level Estimated
10:18AM 33.4904 104.6049 231° Southwest  Level Estimated